createdAt,value
2018-12-29T00:00:31.764Z,99572.16
2018-12-29T00:03:00.170Z,99570.00
2018-12-29T00:05:28.484Z,99573.69
2018-12-29T00:07:56.814Z,99571.34
2018-12-29T00:10:25.128Z,99570.33
2018-12-29T00:12:53.432Z,99573.83
2018-12-29T00:15:21.759Z,99576.16
2018-12-29T00:17:50.408Z,99580.16
2018-12-29T00:20:18.740Z,99577.56
2018-12-29T00:22:47.052Z,99572.50
2018-12-29T00:25:15.390Z,99583.53
2018-12-29T00:27:43.917Z,99582.54
2018-12-29T00:30:12.323Z,99587.05
2018-12-29T00:32:41.006Z,99595.37
2018-12-29T00:35:09.348Z,99594.77
2018-12-29T00:37:37.657Z,99596.89
2018-12-29T00:40:06.061Z,99599.09
2018-12-29T00:42:34.374Z,99602.83
2018-12-29T00:45:03.023Z,99611.77
2018-12-29T00:47:31.496Z,99605.44
2018-12-29T00:49:59.803Z,99611.10
2018-12-29T00:52:28.150Z,99610.52
2018-12-29T00:54:56.466Z,99616.52
2018-12-29T00:57:24.806Z,99611.78
2018-12-29T00:59:53.941Z,99614.41
2018-12-29T01:02:22.715Z,99613.97
2018-12-29T01:04:51.402Z,99616.09
2018-12-29T01:07:19.713Z,99615.68
2018-12-29T01:09:48.046Z,99615.80
2018-12-29T01:12:16.360Z,99615.07
2018-12-29T01:14:44.866Z,99615.98
2018-12-29T01:17:13.248Z,99618.97
2018-12-29T01:19:42.473Z,99618.14
2018-12-29T01:22:10.783Z,99603.98
2018-12-29T01:24:39.128Z,99609.66
2018-12-29T01:27:07.442Z,99605.70
2018-12-29T01:29:35.764Z,99604.39
2018-12-29T01:32:04.163Z,99599.86
2018-12-29T01:34:32.478Z,99600.16
2018-12-29T01:37:00.827Z,99597.12
2018-12-29T01:39:29.259Z,99593.39
2018-12-29T01:41:57.588Z,99607.96
2018-12-29T01:44:26.222Z,99601.38
2018-12-29T01:46:54.565Z,99598.67
2018-12-29T01:49:22.899Z,99600.97
2018-12-29T01:51:51.233Z,99602.59
2018-12-29T01:54:19.851Z,99598.08
2018-12-29T01:56:48.630Z,99599.14
2018-12-29T01:59:17.347Z,99599.06
2018-12-29T02:01:45.809Z,99611.22
2018-12-29T02:04:14.141Z,99604.87
2018-12-29T02:06:42.477Z,99616.34
2018-12-29T02:09:10.812Z,99622.81
2018-12-29T02:11:39.154Z,99623.41
2018-12-29T02:14:07.825Z,99616.20
2018-12-29T02:16:36.247Z,99629.68
2018-12-29T02:19:04.642Z,99635.45
2018-12-29T02:21:32.978Z,99637.48
2018-12-29T02:24:01.291Z,99635.05
2018-12-29T02:26:29.629Z,99631.16
2018-12-29T02:28:57.935Z,99629.82
2018-12-29T02:31:26.251Z,99618.81
2018-12-29T02:33:54.584Z,99630.56
2018-12-29T02:36:22.895Z,99620.29
2018-12-29T02:38:51.226Z,99617.51
2018-12-29T02:41:19.532Z,99619.31
2018-12-29T02:43:47.868Z,99617.92
2018-12-29T02:46:16.178Z,99613.99
2018-12-29T02:48:44.518Z,99607.21
2018-12-29T02:51:12.912Z,99600.36
2018-12-29T02:53:41.236Z,99596.28
2018-12-29T02:56:09.558Z,99596.49
2018-12-29T02:58:38.094Z,99584.21
2018-12-29T03:01:06.425Z,99579.39
2018-12-29T03:03:35.055Z,99573.31
2018-12-29T03:06:03.381Z,99576.66
2018-12-29T03:08:31.691Z,99574.42
2018-12-29T03:11:00.031Z,99571.23
2018-12-29T03:13:28.782Z,99566.83
2018-12-29T03:15:57.117Z,99564.42
2018-12-29T03:18:25.428Z,99567.67
2018-12-29T03:20:53.910Z,99568.53
2018-12-29T03:23:22.217Z,99560.03
2018-12-29T03:25:50.534Z,99559.66
2018-12-29T03:28:19.173Z,99555.36
2018-12-29T03:30:47.498Z,99572.53
2018-12-29T03:33:15.819Z,99577.08
2018-12-29T03:35:44.131Z,99572.50
2018-12-29T03:38:12.535Z,99566.34
2018-12-29T03:40:40.843Z,99577.70
2018-12-29T03:43:09.564Z,99575.84
2018-12-29T03:45:37.883Z,99578.14
2018-12-29T03:48:06.496Z,99586.83
2018-12-29T03:50:35.182Z,99595.23
2018-12-29T03:53:03.516Z,99593.48
2018-12-29T03:55:31.902Z,99603.77
2018-12-29T03:58:01.177Z,99607.72
2018-12-29T04:00:29.502Z,99592.98
2018-12-29T04:02:57.817Z,99600.83
2018-12-29T04:05:26.283Z,99602.13
2018-12-29T04:07:54.922Z,99599.45
2018-12-29T04:10:23.260Z,99606.53
2018-12-29T04:12:51.705Z,99610.80
2018-12-29T04:15:20.100Z,99611.89
2018-12-29T04:17:48.408Z,99612.45
2018-12-29T04:20:16.745Z,99610.49
2018-12-29T04:22:45.154Z,99615.14
2018-12-29T04:25:13.473Z,99611.16
2018-12-29T04:27:41.808Z,99616.55
2018-12-29T04:30:10.245Z,99616.77
2018-12-29T04:32:38.563Z,99611.87
2018-12-29T04:35:07.996Z,99613.20
2018-12-29T04:37:36.312Z,99614.34
2018-12-29T04:40:05.480Z,99625.81
2018-12-29T04:42:34.108Z,99623.58
2018-12-29T04:45:02.446Z,99635.70
2018-12-29T04:47:30.822Z,99633.55
2018-12-29T04:49:59.154Z,99639.09
2018-12-29T04:52:27.459Z,99630.11
2018-12-29T04:54:55.794Z,99635.53
2018-12-29T04:57:24.107Z,99635.64
2018-12-29T04:59:52.441Z,99630.85
2018-12-29T05:02:20.762Z,99615.05
2018-12-29T05:04:49.091Z,99615.94
2018-12-29T05:07:17.429Z,99620.94
2018-12-29T05:09:45.822Z,99610.53
2018-12-29T05:12:14.159Z,99607.20
2018-12-29T05:14:42.471Z,99612.39
2018-12-29T05:17:10.875Z,99615.87
2018-12-29T05:19:39.181Z,99620.57
2018-12-29T05:22:07.570Z,99618.91
2018-12-29T05:24:35.880Z,99619.00
2018-12-29T05:27:04.269Z,99621.20
2018-12-29T05:29:32.586Z,99624.95
2018-12-29T05:32:00.905Z,99629.50
2018-12-29T05:34:29.607Z,99641.89
2018-12-29T05:36:58.299Z,99634.57
2018-12-29T05:39:26.654Z,99632.34
2018-12-29T05:41:54.987Z,99644.83
2018-12-29T05:44:23.300Z,99635.70
2018-12-29T05:46:51.630Z,99645.18
2018-12-29T05:49:19.943Z,99648.39
2018-12-29T05:51:48.276Z,99646.61
2018-12-29T05:54:17.215Z,99647.53
2018-12-29T05:56:45.867Z,99649.27
2018-12-29T05:59:14.259Z,99653.79
2018-12-29T06:01:42.575Z,99647.52
2018-12-29T06:04:10.905Z,99660.52
2018-12-29T06:06:39.212Z,99662.70
2018-12-29T06:09:07.833Z,99662.66
2018-12-29T06:11:36.148Z,99659.55
2018-12-29T06:14:04.488Z,99653.98
2018-12-29T06:16:32.807Z,99657.39
2018-12-29T06:19:01.143Z,99642.03
2018-12-29T06:21:29.575Z,99635.52
2018-12-29T06:23:57.904Z,99642.52
2018-12-29T06:26:26.222Z,99654.41
2018-12-29T06:28:54.558Z,99655.56
2018-12-29T06:31:22.920Z,99654.31
2018-12-29T06:33:51.250Z,99651.98
2018-12-29T06:36:20.172Z,99652.05
2018-12-29T06:38:48.488Z,99662.46
2018-12-29T06:41:17.142Z,99667.05
2018-12-29T06:43:45.452Z,99669.88
2018-12-29T06:46:13.788Z,99667.66
2018-12-29T06:48:42.096Z,99673.75
2018-12-29T06:51:10.429Z,99668.91
2018-12-29T06:53:38.747Z,99663.47
2018-12-29T06:56:07.078Z,99670.20
2018-12-29T06:58:35.395Z,99658.27
2018-12-29T07:01:03.705Z,99654.41
2018-12-29T07:03:32.041Z,99661.91
2018-12-29T07:06:00.652Z,99675.34
2018-12-29T07:08:28.996Z,99690.41
2018-12-29T07:10:57.313Z,99692.47
2018-12-29T07:13:26.548Z,99702.88
2018-12-29T07:15:54.892Z,99705.12
2018-12-29T07:18:23.210Z,99706.25
2018-12-29T07:20:51.672Z,99717.31
2018-12-29T07:23:20.160Z,99707.96
2018-12-29T07:25:48.492Z,99700.95
2018-12-29T07:28:16.797Z,99711.10
2018-12-29T07:30:45.132Z,99714.29
2018-12-29T07:33:13.446Z,99713.36
2018-12-29T07:35:42.156Z,99718.37
2018-12-29T07:38:10.802Z,99715.52
2018-12-29T07:40:39.106Z,99698.92
2018-12-29T07:43:07.435Z,99721.42
2018-12-29T07:45:35.745Z,99717.14
2018-12-29T07:48:05.579Z,99712.13
2018-12-29T07:50:33.971Z,99719.44
2018-12-29T07:53:02.305Z,99715.81
2018-12-29T07:55:31.501Z,99714.41
2018-12-29T07:57:59.807Z,99715.27
2018-12-29T08:00:28.534Z,99709.31
2018-12-29T08:02:56.851Z,99713.84
2018-12-29T08:05:25.252Z,99703.36
2018-12-29T08:07:53.558Z,99704.94
2018-12-29T08:10:21.869Z,99704.35
2018-12-29T08:12:50.208Z,99705.94
2018-12-29T08:15:18.923Z,99698.22
2018-12-29T08:17:47.241Z,99699.00
2018-12-29T08:20:15.578Z,99692.37
2018-12-29T08:22:43.882Z,99696.37
2018-12-29T08:25:12.228Z,99708.08
2018-12-29T08:27:40.749Z,99711.19
2018-12-29T08:30:09.061Z,99714.36
2018-12-29T08:32:37.374Z,99707.28
2018-12-29T08:35:06.350Z,99711.33
2018-12-29T08:37:34.664Z,99709.90
2018-12-29T08:40:03.065Z,99717.08
2018-12-29T08:42:31.475Z,99713.61
2018-12-29T08:45:00.046Z,99720.56
2018-12-29T08:47:28.377Z,99730.38
2018-12-29T08:49:56.685Z,99723.02
2018-12-29T08:52:25.003Z,99720.11
2018-12-29T08:54:53.345Z,99732.57
2018-12-29T08:57:22.027Z,99738.26
2018-12-29T08:59:50.364Z,99742.68
2018-12-29T09:02:19.402Z,99745.53
2018-12-29T09:04:47.804Z,99747.86
2018-12-29T09:07:16.118Z,99754.86
2018-12-29T09:09:44.449Z,99770.13
2018-12-29T09:12:12.827Z,99731.72
2018-12-29T09:14:41.516Z,99781.74
2018-12-29T09:17:12.168Z,99776.45
2018-12-29T09:19:40.478Z,99770.81
2018-12-29T09:22:08.879Z,99751.59
2018-12-29T09:24:37.189Z,99779.07
2018-12-29T09:27:05.522Z,99774.69
2018-12-29T09:29:33.837Z,99775.27
2018-12-29T09:32:02.182Z,99783.48
2018-12-29T09:34:30.498Z,99791.84
2018-12-29T09:36:58.856Z,99792.30
2018-12-29T09:39:27.173Z,99793.72
2018-12-29T09:41:55.492Z,99796.77
2018-12-29T09:44:23.917Z,99786.34
2018-12-29T09:46:52.234Z,99795.19
2018-12-29T09:49:20.575Z,99794.87
2018-12-29T09:51:48.893Z,99790.84
2018-12-29T09:54:17.229Z,99808.35
2018-12-29T09:56:45.550Z,99798.81
2018-12-29T09:59:13.908Z,99810.11
2018-12-29T10:01:43.063Z,99803.27
2018-12-29T10:04:11.437Z,99787.50
2018-12-29T10:06:39.756Z,99811.02
2018-12-29T10:09:08.063Z,99804.17
2018-12-29T10:11:36.398Z,99801.77
2018-12-29T10:14:04.936Z,99800.46
2018-12-29T10:16:33.270Z,99786.29
2018-12-29T10:19:01.647Z,99793.23
2018-12-29T10:21:30.275Z,99816.17
2018-12-29T10:23:58.598Z,99792.71
2018-12-29T10:26:27.015Z,99797.00
2018-12-29T10:28:55.335Z,99791.52
2018-12-29T10:31:23.976Z,99788.56
2018-12-29T10:33:52.509Z,99787.08
2018-12-29T10:36:20.992Z,99796.06
2018-12-29T10:38:50.286Z,99799.38
2018-12-29T10:41:19.017Z,99793.18
2018-12-29T10:43:47.699Z,99788.85
2018-12-29T10:46:16.239Z,99784.34
2018-12-29T10:48:44.617Z,99794.27
2018-12-29T10:51:14.819Z,99783.90
2018-12-29T10:53:43.050Z,99782.83
2018-12-29T10:56:11.822Z,99773.02
2018-12-29T10:58:40.518Z,99773.57
2018-12-29T11:01:08.858Z,99778.86
2018-12-29T11:03:37.172Z,99773.90
2018-12-29T11:06:06.309Z,99771.16
2018-12-29T11:08:34.631Z,99785.81
2018-12-29T11:11:02.970Z,99774.47
2018-12-29T11:13:31.506Z,99778.25
2018-12-29T11:15:59.821Z,99778.33
2018-12-29T11:18:28.155Z,99794.87
2018-12-29T11:20:58.012Z,99771.28
2018-12-29T11:23:27.598Z,99768.30
2018-12-29T11:25:56.300Z,99782.77
2018-12-29T11:28:24.697Z,99769.89
2018-12-29T11:30:53.386Z,99795.36
2018-12-29T11:33:22.098Z,99799.52
2018-12-29T11:35:50.447Z,99768.72
2018-12-29T11:38:18.765Z,99763.14
2018-12-29T11:40:47.096Z,99758.76
2018-12-29T11:43:16.606Z,99758.91
2018-12-29T11:45:45.004Z,99754.59
2018-12-29T11:48:13.674Z,99760.83
2018-12-29T11:50:42.003Z,99759.45
2018-12-29T11:53:10.318Z,99752.04
2018-12-29T11:55:38.646Z,99752.74
2018-12-29T11:58:07.295Z,99748.41
2018-12-29T12:00:35.618Z,99755.77
2018-12-29T12:03:04.024Z,99751.94
2018-12-29T12:05:32.330Z,99708.09
2018-12-29T12:08:00.683Z,99769.05
2018-12-29T12:10:29.308Z,99756.07
2018-12-29T12:12:57.662Z,99772.69
2018-12-29T12:15:25.976Z,99755.52
2018-12-29T12:17:57.488Z,99744.50
2018-12-29T12:20:24.338Z,99749.23
2018-12-29T12:22:52.959Z,99741.80
2018-12-29T12:25:21.298Z,99751.85
2018-12-29T12:27:49.879Z,99757.71
2018-12-29T12:30:18.217Z,99764.02
2018-12-29T12:32:46.995Z,99771.60
2018-12-29T12:35:15.488Z,99780.70
2018-12-29T12:37:43.802Z,99787.22
2018-12-29T12:40:12.136Z,99779.10
2018-12-29T12:42:40.733Z,99778.59
2018-12-29T12:45:09.066Z,99776.01
2018-12-29T12:47:37.379Z,99771.27
2018-12-29T12:50:05.762Z,99773.90
2018-12-29T12:52:34.605Z,99779.75
2018-12-29T12:55:03.253Z,99783.86
2018-12-29T12:57:31.585Z,99779.97
2018-12-29T13:00:00.448Z,99784.78
2018-12-29T13:02:29.153Z,99781.50
2018-12-29T13:04:57.470Z,99774.13
2018-12-29T13:07:25.782Z,99790.89
2018-12-29T13:09:54.115Z,99756.72
2018-12-29T13:12:22.429Z,99758.55
2018-12-29T13:14:51.434Z,99755.64
2018-12-29T13:17:19.743Z,99755.05
2018-12-29T13:19:48.079Z,99761.00
2018-12-29T13:22:16.387Z,99760.11
2018-12-29T13:24:44.716Z,99761.41
2018-12-29T13:27:13.505Z,99761.66
2018-12-29T13:29:41.820Z,99771.67
2018-12-29T13:32:10.148Z,99770.69
2018-12-29T13:34:38.463Z,99761.47
2018-12-29T13:37:06.803Z,99768.20
2018-12-29T13:39:35.859Z,99767.34
2018-12-29T13:42:04.181Z,99808.21
2018-12-29T13:44:32.510Z,99775.31
2018-12-29T13:47:00.822Z,99768.62
2018-12-29T13:49:29.153Z,99762.23
2018-12-29T13:51:58.279Z,99760.41
2018-12-29T13:54:26.975Z,99769.41
2018-12-29T13:56:55.657Z,99765.06
2018-12-29T13:59:24.011Z,99770.69
2018-12-29T14:01:52.329Z,99764.55
2018-12-29T14:04:21.149Z,99765.64
2018-12-29T14:06:49.540Z,99779.80
2018-12-29T14:09:17.860Z,99774.27
2018-12-29T14:11:46.194Z,99773.68
2018-12-29T14:14:14.502Z,99770.26
2018-12-29T14:16:42.838Z,99781.52
2018-12-29T14:19:11.189Z,99772.27
2018-12-29T14:21:39.548Z,99776.66
2018-12-29T14:24:07.859Z,99768.26
2018-12-29T14:26:36.176Z,99772.47
2018-12-29T14:29:05.335Z,99766.45
2018-12-29T14:31:33.711Z,99782.63
2018-12-29T14:34:02.040Z,99776.31
2018-12-29T14:36:30.372Z,99778.98
2018-12-29T14:38:58.804Z,99780.66
2018-12-29T14:41:27.195Z,99770.91
2018-12-29T14:43:55.538Z,99777.73
2018-12-29T14:46:23.867Z,99772.01
2018-12-29T14:48:52.204Z,99775.02
2018-12-29T14:51:20.524Z,99759.52
2018-12-29T14:53:48.833Z,99759.69
2018-12-29T14:56:17.165Z,99765.97
2018-12-29T14:58:45.821Z,99766.63
2018-12-29T15:01:14.504Z,99758.87
2018-12-29T15:03:42.820Z,99765.66
2018-12-29T15:06:11.192Z,99767.25
2018-12-29T15:08:39.856Z,99766.92
2018-12-29T15:11:08.553Z,99773.02
2018-12-29T15:13:36.859Z,99761.22
2018-12-29T15:16:05.199Z,99760.94
2018-12-29T15:18:33.913Z,99754.74
2018-12-29T15:21:02.581Z,99751.86
2018-12-29T15:23:30.912Z,99756.48
2018-12-29T15:25:59.802Z,99766.73
2018-12-29T15:28:28.358Z,99762.89
2018-12-29T15:30:56.679Z,99754.27
2018-12-29T15:33:25.016Z,99745.97
2018-12-29T15:35:53.329Z,99748.39
2018-12-29T15:38:22.435Z,99746.37
2018-12-29T15:40:51.154Z,99746.14
2018-12-29T15:43:19.466Z,99750.62
2018-12-29T15:45:48.076Z,99759.91
2018-12-29T15:48:16.459Z,99751.19
2018-12-29T15:50:44.796Z,99742.74
2018-12-29T15:53:13.182Z,99747.38
2018-12-29T15:55:41.536Z,99748.20
2018-12-29T15:58:10.609Z,99744.28
2018-12-29T16:00:38.960Z,99747.14
2018-12-29T16:03:07.352Z,99745.04
2018-12-29T16:05:36.285Z,99748.09
2018-12-29T16:08:04.685Z,99741.58
2018-12-29T16:10:33.002Z,99742.43
2018-12-29T16:13:01.670Z,99739.09
2018-12-29T16:15:29.981Z,99741.37
2018-12-29T16:17:58.987Z,99726.34
2018-12-29T16:20:27.309Z,99737.13
2018-12-29T16:22:56.558Z,99741.62
2018-12-29T16:25:25.175Z,99738.53
2018-12-29T16:27:53.504Z,99741.06
2018-12-29T16:30:21.899Z,99744.48
2018-12-29T16:32:51.080Z,99745.53
2018-12-29T16:35:19.409Z,99747.81
2018-12-29T16:37:47.723Z,99741.34
2018-12-29T16:40:16.057Z,99734.11
2018-12-29T16:42:44.385Z,99730.98
2018-12-29T16:45:13.101Z,99730.21
2018-12-29T16:47:41.419Z,99730.31
2018-12-29T16:50:10.159Z,99737.02
2018-12-29T16:52:38.486Z,99734.78
2018-12-29T16:55:07.555Z,99732.73
2018-12-29T16:57:35.886Z,99728.96
2018-12-29T17:00:06.362Z,99726.78
2018-12-29T17:02:34.690Z,99720.95
2018-12-29T17:05:03.832Z,99729.83
2018-12-29T17:07:32.354Z,99717.56
2018-12-29T17:10:00.751Z,99707.84
2018-12-29T17:12:29.098Z,99705.80
2018-12-29T17:14:57.508Z,99699.42
2018-12-29T17:17:25.827Z,99691.56
2018-12-29T17:19:54.163Z,99695.57
2018-12-29T17:22:22.483Z,99696.10
2018-12-29T17:24:50.937Z,99686.95
2018-12-29T17:27:19.779Z,99678.66
2018-12-29T17:29:48.749Z,99678.66
2018-12-29T17:32:17.075Z,99677.56
2018-12-29T17:34:45.403Z,99669.72
2018-12-29T17:37:14.091Z,99670.23
2018-12-29T17:39:42.746Z,99673.20
2018-12-29T17:42:11.086Z,99667.54
2018-12-29T17:44:39.490Z,99657.16
2018-12-29T17:47:07.895Z,99655.53
2018-12-29T17:49:36.351Z,99645.75
2018-12-29T17:52:05.143Z,99645.27
2018-12-29T17:54:33.469Z,99639.94
2018-12-29T17:57:01.784Z,99637.56
2018-12-29T17:59:30.484Z,99631.03
2018-12-29T18:01:58.874Z,99628.19
2018-12-29T18:04:27.760Z,99624.14
2018-12-29T18:06:56.087Z,99618.14
2018-12-29T18:09:24.405Z,99619.83
2018-12-29T18:11:53.295Z,99614.96
2018-12-29T18:14:22.410Z,99608.88
2018-12-29T18:16:50.749Z,99615.91
2018-12-29T18:19:19.880Z,99613.23
2018-12-29T18:21:48.219Z,99606.17
2018-12-29T18:24:16.525Z,99598.20
2018-12-29T18:26:44.837Z,99596.73
2018-12-29T18:29:13.521Z,99594.72
2018-12-29T18:31:41.918Z,99591.62
2018-12-29T18:34:10.243Z,99587.34
2018-12-29T18:36:38.559Z,99590.23
2018-12-29T18:39:07.639Z,99580.66
2018-12-29T18:41:36.029Z,99575.75
2018-12-29T18:44:04.937Z,99578.69
2018-12-29T18:46:33.251Z,99577.17
2018-12-29T18:49:01.902Z,99566.20
2018-12-29T18:51:30.228Z,99565.38
2018-12-29T18:53:58.577Z,99560.11
2018-12-29T18:56:27.362Z,99556.12
2018-12-29T18:58:55.760Z,99553.41
2018-12-29T19:01:24.436Z,99541.41
2018-12-29T19:03:52.994Z,99545.77
2018-12-29T19:06:21.353Z,99545.97
2018-12-29T19:08:49.761Z,99534.55
2018-12-29T19:11:18.103Z,99521.55
2018-12-29T19:13:46.405Z,99520.63
2018-12-29T19:16:15.005Z,99519.76
2018-12-29T19:18:43.388Z,99527.24
2018-12-29T19:21:12.128Z,99523.09
2018-12-29T19:23:41.110Z,99509.39
2018-12-29T19:26:09.885Z,99510.42
2018-12-29T19:28:38.482Z,99500.62
2018-12-29T19:31:06.863Z,99503.52
2018-12-29T19:33:35.948Z,99496.72
2018-12-29T19:36:04.768Z,99495.91
2018-12-29T19:38:33.085Z,99493.23
2018-12-29T19:41:01.492Z,99482.96
2018-12-29T19:43:30.287Z,99488.99
2018-12-29T19:45:58.596Z,99484.70
2018-12-29T19:48:26.991Z,99486.50
2018-12-29T19:50:55.801Z,99476.44
2018-12-29T19:53:24.414Z,99460.19
2018-12-29T19:55:52.733Z,99470.91
2018-12-29T19:58:21.073Z,99468.98
2018-12-29T20:00:49.537Z,99466.23
2018-12-29T20:03:18.337Z,99467.11
2018-12-29T20:05:47.280Z,99453.62
2018-12-29T20:08:15.948Z,99457.56
2018-12-29T20:10:44.265Z,99457.84
2018-12-29T20:13:12.932Z,99440.19
2018-12-29T20:15:41.327Z,99445.67
2018-12-29T20:18:09.642Z,99445.67
2018-12-29T20:20:37.989Z,99438.19
2018-12-29T20:23:06.323Z,99443.33
2018-12-29T20:25:34.637Z,99435.75
2018-12-29T20:28:02.966Z,99431.89
2018-12-29T20:30:31.301Z,99412.91
2018-12-29T20:32:59.696Z,99393.08
2018-12-29T20:35:28.364Z,99372.59
2018-12-29T20:37:57.185Z,99387.49
2018-12-29T20:40:25.940Z,99380.64
2018-12-29T20:42:54.407Z,99360.53
2018-12-29T20:45:22.822Z,99360.53
2018-12-29T20:47:51.406Z,99362.52
2018-12-29T20:50:19.857Z,99375.15
2018-12-29T20:52:48.319Z,99381.59
2018-12-29T20:55:16.635Z,99360.20
2018-12-29T20:57:45.333Z,99344.65
2018-12-29T21:00:13.726Z,99383.50
2018-12-29T21:02:42.094Z,99361.25
2018-12-29T21:05:10.884Z,99347.89
2018-12-29T21:07:39.354Z,99365.20
2018-12-29T21:10:08.271Z,99369.09
2018-12-29T21:12:36.591Z,99383.59
2018-12-29T21:15:05.572Z,99377.26
2018-12-29T21:17:33.891Z,99382.83
2018-12-29T21:20:02.577Z,99387.55
2018-12-29T21:22:30.894Z,99391.58
2018-12-29T21:24:59.231Z,99386.19
2018-12-29T21:27:27.532Z,99379.28
2018-12-29T21:29:55.862Z,99379.14
2018-12-29T21:32:25.028Z,99377.02
2018-12-29T21:34:53.350Z,99369.77
2018-12-29T21:37:21.686Z,99358.06
2018-12-29T21:39:50.066Z,99307.70
2018-12-29T21:42:18.462Z,99329.59
2018-12-29T21:44:46.776Z,99322.86
2018-12-29T21:47:15.501Z,99321.56
2018-12-29T21:49:43.823Z,99354.72
2018-12-29T21:52:12.817Z,99361.69
2018-12-29T21:54:41.488Z,99364.18
2018-12-29T21:57:10.183Z,99355.41
2018-12-29T21:59:39.185Z,99362.87
2018-12-29T22:02:08.367Z,99355.78
2018-12-29T22:04:36.688Z,99339.61
2018-12-29T22:07:05.069Z,99342.17
2018-12-29T22:09:33.776Z,99326.52
2018-12-29T22:12:02.083Z,99317.67
2018-12-29T22:14:31.056Z,99316.26
2018-12-29T22:16:59.681Z,99314.36
2018-12-29T22:19:28.016Z,99314.61
2018-12-29T22:21:56.337Z,99300.94
2018-12-29T22:24:25.036Z,99285.81
2018-12-29T22:26:53.343Z,99279.61
2018-12-29T22:29:21.678Z,99277.23
2018-12-29T22:31:50.381Z,99274.03
2018-12-29T22:34:19.071Z,99269.60
2018-12-29T22:36:47.418Z,99270.31
2018-12-29T22:39:16.454Z,99252.80
2018-12-29T22:41:45.738Z,99256.72
2018-12-29T22:44:14.438Z,99258.68
2018-12-29T22:46:42.891Z,99259.94
2018-12-29T22:49:11.329Z,99267.14
2018-12-29T22:51:39.650Z,99254.57
2018-12-29T22:54:08.430Z,99244.15
2018-12-29T22:56:36.747Z,99227.17
2018-12-29T22:59:05.226Z,99227.19
2018-12-29T23:01:33.622Z,99211.36
2018-12-29T23:04:01.946Z,99197.84
2018-12-29T23:06:30.259Z,99191.04
2018-12-29T23:08:58.994Z,99185.53
2018-12-29T23:11:28.180Z,99189.48
2018-12-29T23:13:56.496Z,99187.41
2018-12-29T23:16:24.892Z,99187.88
2018-12-29T23:18:53.598Z,99185.52
2018-12-29T23:21:21.926Z,99189.42
2018-12-29T23:23:50.241Z,99181.77
2018-12-29T23:26:18.581Z,99168.68
2018-12-29T23:28:46.899Z,99158.75
2018-12-29T23:31:15.230Z,99162.62
2018-12-29T23:33:43.539Z,99161.02
2018-12-29T23:36:12.337Z,99163.03
2018-12-29T23:38:40.668Z,99159.93
2018-12-29T23:41:08.986Z,99153.14
2018-12-29T23:43:37.803Z,99149.98
2018-12-29T23:46:06.407Z,99148.23
2018-12-29T23:48:34.736Z,99135.59
2018-12-29T23:51:05.491Z,99131.48
2018-12-29T23:53:33.363Z,99140.47
2018-12-29T23:56:02.156Z,99134.56
2018-12-29T23:58:30.656Z,99129.41
